sensor_id;sensor_type;location;lat;lon;timestamp;pressure;altitude;pressure_sealevel;temperature;humidity
23677;BME280;31493;49.058;12.190;2022-12-18T00:02:21;97293.69;;;-5.50;100.00
23677;BME280;31493;49.058;12.190;2022-12-18T00:04:48;97283.09;;;-5.83;100.00
23677;BME280;31493;49.058;12.190;2022-12-18T00:07:15;97290.47;;;-5.99;100.00
23677;BME280;31493;49.058;12.190;2022-12-18T00:09:42;97284.00;;;-5.81;100.00
23677;BME280;31493;49.058;12.190;2022-12-18T00:12:09;97283.41;;;-5.63;100.00
23677;BME280;31493;49.058;12.190;2022-12-18T00:14:37;97270.84;;;-5.59;100.00
23677;BME280;31493;49.058;12.190;2022-12-18T00:17:04;97283.25;;;-5.74;100.00
23677;BME280;31493;49.058;12.190;2022-12-18T00:19:31;97271.56;;;-5.69;100.00
23677;BME280;31493;49.058;12.190;2022-12-18T00:21:58;97264.81;;;-5.70;100.00
23677;BME280;31493;49.058;12.190;2022-12-18T00:24:25;97263.06;;;-5.74;100.00
23677;BME280;31493;49.058;12.190;2022-12-18T00:26:52;97268.97;;;-5.74;100.00
23677;BME280;31493;49.058;12.190;2022-12-18T00:29:19;97274.00;;;-5.74;100.00
23677;BME280;31493;49.058;12.190;2022-12-18T00:31:48;97278.09;;;-5.82;100.00
23677;BME280;31493;49.058;12.190;2022-12-18T00:34:15;97291.63;;;-5.77;100.00
23677;BME280;31493;49.058;12.190;2022-12-18T00:36:42;97282.41;;;-5.75;100.00
23677;BME280;31493;49.058;12.190;2022-12-18T00:39:10;97298.75;;;-5.50;100.00
23677;BME280;31493;49.058;12.190;2022-12-18T00:41:37;97296.72;;;-5.74;100.00
23677;BME280;31493;49.058;12.190;2022-12-18T00:44:22;97311.00;;;-5.73;100.00
23677;BME280;31493;49.058;12.190;2022-12-18T00:46:51;97301.78;;;-5.72;100.00
23677;BME280;31493;49.058;12.190;2022-12-18T00:49:19;97306.63;;;-5.84;100.00
23677;BME280;31493;49.058;12.190;2022-12-18T00:51:46;97305.13;;;-5.72;100.00
23677;BME280;31493;49.058;12.190;2022-12-18T00:54:14;97312.31;;;-6.01;100.00
23677;BME280;31493;49.058;12.190;2022-12-18T00:56:41;97313.34;;;-5.83;100.00
23677;BME280;31493;49.058;12.190;2022-12-18T00:59:08;97311.16;;;-5.63;100.00
23677;BME280;31493;49.058;12.190;2022-12-18T01:01:35;97302.03;;;-5.55;100.00
23677;BME280;31493;49.058;12.190;2022-12-18T01:04:04;97314.00;;;-5.41;100.00
23677;BME280;31493;49.058;12.190;2022-12-18T01:06:31;97291.28;;;-5.41;100.00
23677;BME280;31493;49.058;12.190;2022-12-18T01:08:58;97307.97;;;-5.52;100.00
23677;BME280;31493;49.058;12.190;2022-12-18T01:11:25;97307.00;;;-5.60;100.00
23677;BME280;31493;49.058;12.190;2022-12-18T01:13:53;97308.03;;;-5.47;100.00
23677;BME280;31493;49.058;12.190;2022-12-18T01:16:20;97313.91;;;-5.48;100.00
23677;BME280;31493;49.058;12.190;2022-12-18T01:18:51;97308.84;;;-5.48;100.00
23677;BME280;31493;49.058;12.190;2022-12-18T01:21:20;97307.16;;;-5.51;100.00
23677;BME280;31493;49.058;12.190;2022-12-18T01:23:51;97313.06;;;-5.47;100.00
23677;BME280;31493;49.058;12.190;2022-12-18T01:26:19;97310.03;;;-5.26;100.00
23677;BME280;31493;49.058;12.190;2022-12-18T01:28:46;97315.13;;;-5.78;100.00
23677;BME280;31493;49.058;12.190;2022-12-18T01:31:15;97323.91;;;-5.56;100.00
23677;BME280;31493;49.058;12.190;2022-12-18T01:33:43;97328.88;;;-5.60;100.00
23677;BME280;31493;49.058;12.190;2022-12-18T01:36:16;97318.66;;;-5.68;100.00
23677;BME280;31493;49.058;12.190;2022-12-18T01:38:44;97318.97;;;-5.47;100.00
23677;BME280;31493;49.058;12.190;2022-12-18T01:41:12;97312.97;;;-5.55;100.00
23677;BME280;31493;49.058;12.190;2022-12-18T01:43:44;97314.44;;;-5.69;100.00
23677;BME280;31493;49.058;12.190;2022-12-18T01:46:12;97306.97;;;-5.61;100.00
23677;BME280;31493;49.058;12.190;2022-12-18T01:48:39;97321.22;;;-5.65;100.00
23677;BME280;31493;49.058;12.190;2022-12-18T01:51:09;97317.16;;;-5.55;100.00
23677;BME280;31493;49.058;12.190;2022-12-18T01:53:39;97312.94;;;-5.58;100.00
23677;BME280;31493;49.058;12.190;2022-12-18T01:56:10;97319.75;;;-5.52;100.00
23677;BME280;31493;49.058;12.190;2022-12-18T01:58:43;97330.06;;;-5.37;100.00
23677;BME280;31493;49.058;12.190;2022-12-18T02:01:13;97318.94;;;-5.50;100.00
23677;BME280;31493;49.058;12.190;2022-12-18T02:03:41;97329.31;;;-5.31;100.00
23677;BME280;31493;49.058;12.190;2022-12-18T02:06:13;97334.34;;;-5.33;100.00
23677;BME280;31493;49.058;12.190;2022-12-18T02:08:50;97332.97;;;-5.65;100.00
23677;BME280;31493;49.058;12.190;2022-12-18T02:11:27;97333.22;;;-5.52;100.00
23677;BME280;31493;49.058;12.190;2022-12-18T02:14:06;97325.00;;;-5.38;100.00
23677;BME280;31493;49.058;12.190;2022-12-18T02:16:42;97329.22;;;-5.36;100.00
23677;BME280;31493;49.058;12.190;2022-12-18T02:19:20;97337.72;;;-5.29;100.00
23677;BME280;31493;49.058;12.190;2022-12-18T02:22:03;97338.72;;;-5.21;100.00
23677;BME280;31493;49.058;12.190;2022-12-18T02:24:36;97326.78;;;-5.31;100.00
23677;BME280;31493;49.058;12.190;2022-12-18T02:27:09;97330.31;;;-5.20;100.00
23677;BME280;31493;49.058;12.190;2022-12-18T02:29:39;97327.88;;;-5.11;100.00
23677;BME280;31493;49.058;12.190;2022-12-18T02:32:11;97333.00;;;-5.08;100.00
23677;BME280;31493;49.058;12.190;2022-12-18T02:34:41;97345.66;;;-5.03;100.00
23677;BME280;31493;49.058;12.190;2022-12-18T02:37:12;97340.50;;;-5.11;100.00
23677;BME280;31493;49.058;12.190;2022-12-18T02:39:41;97328.66;;;-5.17;100.00
23677;BME280;31493;49.058;12.190;2022-12-18T02:42:11;97334.47;;;-5.22;100.00
23677;BME280;31493;49.058;12.190;2022-12-18T02:44:42;97326.34;;;-5.01;100.00
23677;BME280;31493;49.058;12.190;2022-12-18T02:47:10;97327.59;;;-5.32;100.00
23677;BME280;31493;49.058;12.190;2022-12-18T02:49:44;97328.63;;;-5.18;100.00
23677;BME280;31493;49.058;12.190;2022-12-18T02:52:21;97338.63;;;-5.27;100.00
23677;BME280;31493;49.058;12.190;2022-12-18T02:54:57;97337.97;;;-5.14;100.00
23677;BME280;31493;49.058;12.190;2022-12-18T02:57:33;97340.50;;;-5.11;100.00
23677;BME280;31493;49.058;12.190;2022-12-18T03:00:04;97347.97;;;-5.20;100.00
23677;BME280;31493;49.058;12.190;2022-12-18T03:02:37;97339.63;;;-5.15;100.00
23677;BME280;31493;49.058;12.190;2022-12-18T03:05:10;97339.00;;;-4.98;100.00
23677;BME280;31493;49.058;12.190;2022-12-18T03:07:42;97339.91;;;-4.95;100.00
23677;BME280;31493;49.058;12.190;2022-12-18T03:10:13;97334.78;;;-4.98;100.00
23677;BME280;31493;49.058;12.190;2022-12-18T03:12:45;97336.56;;;-4.92;100.00
23677;BME280;31493;49.058;12.190;2022-12-18T03:15:18;97323.13;;;-4.90;100.00
23677;BME280;31493;49.058;12.190;2022-12-18T03:17:51;97315.31;;;-5.06;100.00
23677;BME280;31493;49.058;12.190;2022-12-18T03:20:21;97327.13;;;-5.05;100.00
23677;BME280;31493;49.058;12.190;2022-12-18T03:22:52;97328.78;;;-5.09;100.00
23677;BME280;31493;49.058;12.190;2022-12-18T03:25:21;97332.94;;;-5.13;100.00
23677;BME280;31493;49.058;12.190;2022-12-18T03:27:53;97329.63;;;-5.07;100.00
23677;BME280;31493;49.058;12.190;2022-12-18T03:30:22;97322.72;;;-5.22;100.00
23677;BME280;31493;49.058;12.190;2022-12-18T03:32:53;97338.84;;;-5.10;100.00
23677;BME280;31493;49.058;12.190;2022-12-18T03:35:26;97344.09;;;-4.97;100.00
23677;BME280;31493;49.058;12.190;2022-12-18T03:37:55;97334.63;;;-5.11;100.00
23677;BME280;31493;49.058;12.190;2022-12-18T03:40:27;97336.22;;;-5.18;100.00
23677;BME280;31493;49.058;12.190;2022-12-18T03:43:02;97325.25;;;-5.20;100.00
23677;BME280;31493;49.058;12.190;2022-12-18T03:45:34;97322.63;;;-5.28;100.00
23677;BME280;31493;49.058;12.190;2022-12-18T03:48:05;97324.34;;;-5.25;100.00
23677;BME280;31493;49.058;12.190;2022-12-18T03:50:38;97324.19;;;-5.36;100.00
23677;BME280;31493;49.058;12.190;2022-12-18T03:53:14;97321.00;;;-5.23;100.00
23677;BME280;31493;49.058;12.190;2022-12-18T03:55:45;97321.72;;;-5.31;100.00
23677;BME280;31493;49.058;12.190;2022-12-18T03:58:19;97330.19;;;-5.28;100.00
23677;BME280;31493;49.058;12.190;2022-12-18T04:00:47;97334.06;;;-5.51;100.00
23677;BME280;31493;49.058;12.190;2022-12-18T04:03:17;97335.75;;;-5.50;100.00
23677;BME280;31493;49.058;12.190;2022-12-18T04:05:48;97340.63;;;-5.62;100.00
23677;BME280;31493;49.058;12.190;2022-12-18T04:08:17;97339.13;;;-5.51;100.00
23677;BME280;31493;49.058;12.190;2022-12-18T04:10:45;97348.41;;;-5.47;100.00
23677;BME280;31493;49.058;12.190;2022-12-18T04:13:22;97349.16;;;-5.54;100.00
23677;BME280;31493;49.058;12.190;2022-12-18T04:15:50;97356.81;;;-5.47;100.00
23677;BME280;31493;49.058;12.190;2022-12-18T04:18:17;97351.50;;;-5.65;100.00
23677;BME280;31493;49.058;12.190;2022-12-18T04:20:44;97350.91;;;-5.49;100.00
23677;BME280;31493;49.058;12.190;2022-12-18T04:23:11;97356.81;;;-5.47;100.00
23677;BME280;31493;49.058;12.190;2022-12-18T04:25:38;97344.44;;;-5.33;100.00
23677;BME280;31493;49.058;12.190;2022-12-18T04:28:05;97350.25;;;-5.37;100.00
23677;BME280;31493;49.058;12.190;2022-12-18T04:30:33;97348.63;;;-5.33;100.00
23677;BME280;31493;49.058;12.190;2022-12-18T04:33:00;97361.19;;;-5.36;100.00
23677;BME280;31493;49.058;12.190;2022-12-18T04:35:27;97355.19;;;-5.46;100.00
23677;BME280;31493;49.058;12.190;2022-12-18T04:37:54;97356.59;;;-5.63;100.00
23677;BME280;31493;49.058;12.190;2022-12-18T04:40:21;97356.78;;;-5.51;100.00
23677;BME280;31493;49.058;12.190;2022-12-18T04:42:48;97360.28;;;-5.42;100.00
23677;BME280;31493;49.058;12.190;2022-12-18T04:45:15;97374.66;;;-5.37;100.00
23677;BME280;31493;49.058;12.190;2022-12-18T04:47:44;97364.09;;;-5.65;100.00
23677;BME280;31493;49.058;12.190;2022-12-18T04:50:11;97377.09;;;-5.41;100.00
23677;BME280;31493;49.058;12.190;2022-12-18T04:52:38;97378.66;;;-5.49;100.00
23677;BME280;31493;49.058;12.190;2022-12-18T04:55:06;97376.97;;;-5.51;100.00
23677;BME280;31493;49.058;12.190;2022-12-18T04:57:33;97373.63;;;-5.50;100.00
23677;BME280;31493;49.058;12.190;2022-12-18T05:00:00;97378.50;;;-5.59;100.00
23677;BME280;31493;49.058;12.190;2022-12-18T05:02:27;97369.44;;;-5.47;100.00
23677;BME280;31493;49.058;12.190;2022-12-18T05:04:55;97374.50;;;-5.47;100.00
23677;BME280;31493;49.058;12.190;2022-12-18T05:07:22;97368.63;;;-5.46;100.00
23677;BME280;31493;49.058;12.190;2022-12-18T05:09:49;97387.72;;;-5.61;100.00
23677;BME280;31493;49.058;12.190;2022-12-18T05:12:16;97385.94;;;-5.69;100.00
23677;BME280;31493;49.058;12.190;2022-12-18T05:14:43;97390.66;;;-5.35;100.00
23677;BME280;31493;49.058;12.190;2022-12-18T05:17:10;97384.53;;;-5.51;100.00
23677;BME280;31493;49.058;12.190;2022-12-18T05:19:37;97368.56;;;-5.52;100.00
23677;BME280;31493;49.058;12.190;2022-12-18T05:22:06;97381.94;;;-5.56;100.00
23677;BME280;31493;49.058;12.190;2022-12-18T05:24:33;97396.97;;;-5.63;100.00
23677;BME280;31493;49.058;12.190;2022-12-18T05:27:00;97380.06;;;-5.66;100.00
23677;BME280;31493;49.058;12.190;2022-12-18T05:29:27;97384.19;;;-5.71;100.00
23677;BME280;31493;49.058;12.190;2022-12-18T05:31:54;97380.72;;;-5.78;100.00
23677;BME280;31493;49.058;12.190;2022-12-18T05:34:21;97396.31;;;-5.52;100.00
23677;BME280;31493;49.058;12.190;2022-12-18T05:36:48;97382.84;;;-5.51;100.00
23677;BME280;31493;49.058;12.190;2022-12-18T05:39:16;97382.03;;;-5.50;100.00
23677;BME280;31493;49.058;12.190;2022-12-18T05:41:44;97369.13;;;-5.68;100.00
23677;BME280;31493;49.058;12.190;2022-12-18T05:44:11;97379.09;;;-5.76;100.00
23677;BME280;31493;49.058;12.190;2022-12-18T05:46:40;97383.28;;;-5.76;100.00
23677;BME280;31493;49.058;12.190;2022-12-18T05:49:07;97397.63;;;-5.72;100.00
23677;BME280;31493;49.058;12.190;2022-12-18T05:51:34;97410.59;;;-6.02;100.00
23677;BME280;31493;49.058;12.190;2022-12-18T05:54:02;97411.25;;;-6.12;100.00
23677;BME280;31493;49.058;12.190;2022-12-18T05:56:30;97406.63;;;-5.88;100.00
23677;BME280;31493;49.058;12.190;2022-12-18T05:58:57;97417.94;;;-6.14;100.00
23677;BME280;31493;49.058;12.190;2022-12-18T06:01:25;97422.34;;;-6.03;100.00
23677;BME280;31493;49.058;12.190;2022-12-18T06:03:53;97440.41;;;-5.78;100.00
23677;BME280;31493;49.058;12.190;2022-12-18T06:06:22;97437.34;;;-6.10;100.00
23677;BME280;31493;49.058;12.190;2022-12-18T06:08:49;97443.22;;;-6.11;100.00
23677;BME280;31493;49.058;12.190;2022-12-18T06:11:18;97434.84;;;-6.09;100.00
23677;BME280;31493;49.058;12.190;2022-12-18T06:13:49;97433.16;;;-6.08;100.00
23677;BME280;31493;49.058;12.190;2022-12-18T06:16:17;97428.94;;;-6.11;100.00
23677;BME280;31493;49.058;12.190;2022-12-18T06:18:44;97420.16;;;-6.31;100.00
23677;BME280;31493;49.058;12.190;2022-12-18T06:21:11;97424.25;;;-6.35;100.00
23677;BME280;31493;49.058;12.190;2022-12-18T06:23:38;97432.66;;;-6.36;100.00
23677;BME280;31493;49.058;12.190;2022-12-18T06:26:06;97425.19;;;-6.31;100.00
23677;BME280;31493;49.058;12.190;2022-12-18T06:28:33;97432.19;;;-6.59;100.00
23677;BME280;31493;49.058;12.190;2022-12-18T06:31:02;97432.66;;;-6.36;100.00
23677;BME280;31493;49.058;12.190;2022-12-18T06:33:29;97437.97;;;-6.20;100.00
23677;BME280;31493;49.058;12.190;2022-12-18T06:36:00;97429.75;;;-6.12;100.00
23677;BME280;31493;49.058;12.190;2022-12-18T06:38:27;97436.63;;;-6.47;100.00
23677;BME280;31493;49.058;12.190;2022-12-18T06:40:54;97439.88;;;-6.51;100.00
23677;BME280;31493;49.058;12.190;2022-12-18T06:43:21;97446.38;;;-6.22;100.00
23677;BME280;31493;49.058;12.190;2022-12-18T06:45:48;97452.53;;;-6.07;100.00
23677;BME280;31493;49.058;12.190;2022-12-18T06:48:19;97437.19;;;-6.19;100.00
23677;BME280;31493;49.058;12.190;2022-12-18T06:50:47;97447.66;;;-6.40;100.00
23677;BME280;31493;49.058;12.190;2022-12-18T06:53:14;97448.06;;;-6.20;100.00
23677;BME280;31493;49.058;12.190;2022-12-18T06:55:41;97447.09;;;-6.27;100.00
23677;BME280;31493;49.058;12.190;2022-12-18T06:58:08;97439.59;;;-6.26;100.00
23677;BME280;31493;49.058;12.190;2022-12-18T07:00:35;97449.78;;;-6.19;100.00
23677;BME280;31493;49.058;12.190;2022-12-18T07:03:02;97445.63;;;-6.17;100.00
23677;BME280;31493;49.058;12.190;2022-12-18T07:05:30;97456.53;;;-6.18;100.00
23677;BME280;31493;49.058;12.190;2022-12-18T07:07:57;97452.50;;;-6.09;100.00
23677;BME280;31493;49.058;12.190;2022-12-18T07:10:25;97473.47;;;-6.10;100.00
23677;BME280;31493;49.058;12.190;2022-12-18T07:12:52;97472.59;;;-6.13;100.00
23677;BME280;31493;49.058;12.190;2022-12-18T07:15:19;97467.81;;;-6.00;100.00
23677;BME280;31493;49.058;12.190;2022-12-18T07:17:46;97467.69;;;-6.06;100.00
23677;BME280;31493;49.058;12.190;2022-12-18T07:20:13;97480.47;;;-5.97;100.00
23677;BME280;31493;49.058;12.190;2022-12-18T07:22:41;97475.97;;;-6.11;100.00
23677;BME280;31493;49.058;12.190;2022-12-18T07:25:08;97483.72;;;-6.02;100.00
23677;BME280;31493;49.058;12.190;2022-12-18T07:27:35;97470.84;;;-6.16;100.00
23677;BME280;31493;49.058;12.190;2022-12-18T07:30:03;97473.34;;;-6.17;100.00
23677;BME280;31493;49.058;12.190;2022-12-18T07:32:31;97471.28;;;-5.93;100.00
23677;BME280;31493;49.058;12.190;2022-12-18T07:34:58;97466.91;;;-6.02;100.00
23677;BME280;31493;49.058;12.190;2022-12-18T07:37:25;97459.88;;;-6.18;100.00
23677;BME280;31493;49.058;12.190;2022-12-18T07:39:53;97454.47;;;-5.94;100.00
23677;BME280;31493;49.058;12.190;2022-12-18T07:42:20;97448.34;;;-6.07;100.00
23677;BME280;31493;49.058;12.190;2022-12-18T07:45:01;97443.72;;;-6.28;100.00
23677;BME280;31493;49.058;12.190;2022-12-18T07:47:28;97440.72;;;-6.10;100.00
23677;BME280;31493;49.058;12.190;2022-12-18T07:49:55;97447.44;;;-6.10;100.00
23677;BME280;31493;49.058;12.190;2022-12-18T07:52:22;97440.06;;;-6.00;100.00
23677;BME280;31493;49.058;12.190;2022-12-18T07:54:49;97443.13;;;-6.14;100.00
23677;BME280;31493;49.058;12.190;2022-12-18T07:57:18;97449.91;;;-6.13;100.00
23677;BME280;31493;49.058;12.190;2022-12-18T07:59:45;97467.50;;;-6.15;100.00
23677;BME280;31493;49.058;12.190;2022-12-18T08:02:12;97470.06;;;-6.13;100.00
23677;BME280;31493;49.058;12.190;2022-12-18T08:04:39;97485.84;;;-6.22;100.00
23677;BME280;31493;49.058;12.190;2022-12-18T08:07:06;97476.38;;;-6.32;100.00
23677;BME280;31493;49.058;12.190;2022-12-18T08:09:33;97487.28;;;-6.33;100.00
23677;BME280;31493;49.058;12.190;2022-12-18T08:12:00;97496.38;;;-6.01;100.00
23677;BME280;31493;49.058;12.190;2022-12-18T08:14:28;97496.28;;;-6.05;100.00
23677;BME280;31493;49.058;12.190;2022-12-18T08:16:55;97505.13;;;-6.26;100.00
23677;BME280;31493;49.058;12.190;2022-12-18T08:19:22;97505.25;;;-6.19;100.00
23677;BME280;31493;49.058;12.190;2022-12-18T08:21:49;97502.28;;;-6.39;100.00
23677;BME280;31493;49.058;12.190;2022-12-18T08:24:16;97499.59;;;-6.48;100.00
23677;BME280;31493;49.058;12.190;2022-12-18T08:26:43;97512.63;;;-6.27;100.00
23677;BME280;31493;49.058;12.190;2022-12-18T08:29:10;97500.50;;;-6.04;100.00
23677;BME280;31493;49.058;12.190;2022-12-18T08:31:39;97502.22;;;-6.02;100.00
23677;BME280;31493;49.058;12.190;2022-12-18T08:34:07;97510.06;;;-5.85;100.00
23677;BME280;31493;49.058;12.190;2022-12-18T08:36:34;97501.47;;;-5.98;100.00
23677;BME280;31493;49.058;12.190;2022-12-18T08:39:01;97499.88;;;-5.89;100.00
23677;BME280;31493;49.058;12.190;2022-12-18T08:41:29;97500.13;;;-5.77;100.00
23677;BME280;31493;49.058;12.190;2022-12-18T08:43:55;97508.75;;;-5.66;100.00
23677;BME280;31493;49.058;12.190;2022-12-18T08:46:43;97509.75;;;-5.58;100.00
23677;BME280;31493;49.058;12.190;2022-12-18T08:49:11;97520.41;;;-5.71;100.00
23677;BME280;31493;49.058;12.190;2022-12-18T08:51:38;97514.25;;;-5.87;100.00
23677;BME280;31493;49.058;12.190;2022-12-18T08:54:06;97532.53;;;-5.53;100.00
23677;BME280;31493;49.058;12.190;2022-12-18T08:56:33;97518.25;;;-6.00;100.00
23677;BME280;31493;49.058;12.190;2022-12-18T08:59:01;97517.13;;;-5.69;100.00
23677;BME280;31493;49.058;12.190;2022-12-18T09:01:28;97519.28;;;-5.88;100.00
23677;BME280;31493;49.058;12.190;2022-12-18T09:03:56;97526.03;;;-5.86;100.00
23677;BME280;31493;49.058;12.190;2022-12-18T09:06:23;97520.75;;;-5.53;100.00
23677;BME280;31493;49.058;12.190;2022-12-18T09:08:52;97512.22;;;-5.59;100.00
23677;BME280;31493;49.058;12.190;2022-12-18T09:11:21;97516.31;;;-6.11;100.00
23677;BME280;31493;49.058;12.190;2022-12-18T09:13:49;97510.91;;;-5.86;100.00
23677;BME280;31493;49.058;12.190;2022-12-18T09:16:17;97510.16;;;-5.82;100.00
23677;BME280;31493;49.058;12.190;2022-12-18T09:18:45;97517.94;;;-5.70;100.00
23677;BME280;31493;49.058;12.190;2022-12-18T09:21:16;97520.25;;;-5.80;100.00
23677;BME280;31493;49.058;12.190;2022-12-18T09:23:43;97509.03;;;-5.98;100.00
23677;BME280;31493;49.058;12.190;2022-12-18T09:26:11;97514.66;;;-6.09;100.00
23677;BME280;31493;49.058;12.190;2022-12-18T09:28:38;97508.41;;;-5.84;100.00
23677;BME280;31493;49.058;12.190;2022-12-18T09:31:07;97514.47;;;-5.75;100.00
23677;BME280;31493;49.058;12.190;2022-12-18T09:33:34;97524.19;;;-5.96;100.00
23677;BME280;31493;49.058;12.190;2022-12-18T09:36:03;97510.81;;;-5.90;100.00
23677;BME280;31493;49.058;12.190;2022-12-18T09:38:32;97512.78;;;-5.76;100.00
23677;BME280;31493;49.058;12.190;2022-12-18T09:41:04;97517.72;;;-5.82;100.00
23677;BME280;31493;49.058;12.190;2022-12-18T09:43:35;97519.00;;;-6.04;100.00
23677;BME280;31493;49.058;12.190;2022-12-18T09:46:08;97495.28;;;-5.67;100.00
23677;BME280;31493;49.058;12.190;2022-12-18T09:48:42;97513.88;;;-5.61;100.00
23677;BME280;31493;49.058;12.190;2022-12-18T09:51:15;97512.94;;;-6.12;100.00
23677;BME280;31493;49.058;12.190;2022-12-18T09:53:47;97489.25;;;-5.76;100.00
23677;BME280;31493;49.058;12.190;2022-12-18T09:56:20;97491.28;;;-6.02;100.00
23677;BME280;31493;49.058;12.190;2022-12-18T09:58:54;97500.44;;;-5.62;100.00
23677;BME280;31493;49.058;12.190;2022-12-18T10:01:23;97490.81;;;-5.81;100.00
23677;BME280;31493;49.058;12.190;2022-12-18T10:03:50;97481.72;;;-5.73;100.00
23677;BME280;31493;49.058;12.190;2022-12-18T10:06:21;97491.28;;;-5.57;100.00
23677;BME280;31493;49.058;12.190;2022-12-18T10:08:56;97481.09;;;-5.60;100.00
23677;BME280;31493;49.058;12.190;2022-12-18T10:11:34;97475.28;;;-5.56;100.00
23677;BME280;31493;49.058;12.190;2022-12-18T10:14:10;97483.28;;;-5.78;100.00
23677;BME280;31493;49.058;12.190;2022-12-18T10:16:48;97487.19;;;-5.50;100.00
23677;BME280;31493;49.058;12.190;2022-12-18T10:19:29;97486.66;;;-5.79;100.00
23677;BME280;31493;49.058;12.190;2022-12-18T10:22:04;97474.47;;;-5.55;100.00
23677;BME280;31493;49.058;12.190;2022-12-18T10:24:43;97478.66;;;-5.57;100.00
23677;BME280;31493;49.058;12.190;2022-12-18T10:27:14;97485.06;;;-5.74;100.00
23677;BME280;31493;49.058;12.190;2022-12-18T10:29:43;97475.47;;;-5.95;100.00
23677;BME280;31493;49.058;12.190;2022-12-18T10:32:14;97478.00;;;-5.93;100.00
23677;BME280;31493;49.058;12.190;2022-12-18T10:34:45;97480.72;;;-5.83;100.00
23677;BME280;31493;49.058;12.190;2022-12-18T10:37:16;97470.84;;;-5.71;100.00
23677;BME280;31493;49.058;12.190;2022-12-18T10:39:45;97457.84;;;-5.44;100.00
23677;BME280;31493;49.058;12.190;2022-12-18T10:42:17;97460.56;;;-5.31;100.00
23677;BME280;31493;49.058;12.190;2022-12-18T10:44:44;97454.50;;;-5.41;100.00
23677;BME280;31493;49.058;12.190;2022-12-18T10:47:14;97446.94;;;-5.41;100.00
23677;BME280;31493;49.058;12.190;2022-12-18T10:49:49;97439.75;;;-5.70;100.00
23677;BME280;31493;49.058;12.190;2022-12-18T10:52:19;97438.72;;;-5.78;100.00
23677;BME280;31493;49.058;12.190;2022-12-18T10:54:55;97427.38;;;-5.53;100.00
23677;BME280;31493;49.058;12.190;2022-12-18T10:57:33;97417.63;;;-5.33;100.00
23677;BME280;31493;49.058;12.190;2022-12-18T11:00:21;97421.88;;;-5.80;100.00
23677;BME280;31493;49.058;12.190;2022-12-18T11:02:49;97432.38;;;-5.57;100.00
23677;BME280;31493;49.058;12.190;2022-12-18T11:05:26;97438.50;;;-5.43;100.00
23677;BME280;31493;49.058;12.190;2022-12-18T11:07:53;97439.84;;;-5.63;100.00
23677;BME280;31493;49.058;12.190;2022-12-18T11:10:25;97449.31;;;-6.00;100.00
23677;BME280;31493;49.058;12.190;2022-12-18T11:12:53;97446.38;;;-5.75;100.00
23677;BME280;31493;49.058;12.190;2022-12-18T11:15:21;97450.78;;;-5.64;100.00
23677;BME280;31493;49.058;12.190;2022-12-18T11:17:51;97463.16;;;-5.77;100.00
23677;BME280;31493;49.058;12.190;2022-12-18T11:20:23;97456.78;;;-6.05;100.00
23677;BME280;31493;49.058;12.190;2022-12-18T11:22:55;97463.72;;;-5.94;100.00
23677;BME280;31493;49.058;12.190;2022-12-18T11:25:25;97471.34;;;-5.88;100.00
23677;BME280;31493;49.058;12.190;2022-12-18T11:27:55;97478.47;;;-5.66;100.00
23677;BME280;31493;49.058;12.190;2022-12-18T11:30:25;97472.38;;;-5.29;100.00
23677;BME280;31493;49.058;12.190;2022-12-18T11:32:55;97464.00;;;-5.28;100.00
23677;BME280;31493;49.058;12.190;2022-12-18T11:35:32;97448.78;;;-5.32;100.00
23677;BME280;31493;49.058;12.190;2022-12-18T11:38:06;97441.53;;;-5.09;100.00
23677;BME280;31493;49.058;12.190;2022-12-18T11:40:36;97450.25;;;-5.45;100.00
23677;BME280;31493;49.058;12.190;2022-12-18T11:43:08;97439.34;;;-5.41;100.00
23677;BME280;31493;49.058;12.190;2022-12-18T11:45:41;97446.38;;;-5.25;100.00
23677;BME280;31493;49.058;12.190;2022-12-18T11:48:15;97447.50;;;-5.06;100.00
23677;BME280;31493;49.058;12.190;2022-12-18T11:50:49;97452.72;;;-4.94;100.00
23677;BME280;31493;49.058;12.190;2022-12-18T11:53:17;97441.59;;;-5.08;100.00
23677;BME280;31493;49.058;12.190;2022-12-18T11:55:51;97425.69;;;-4.99;100.00
23677;BME280;31493;49.058;12.190;2022-12-18T11:58:30;97436.09;;;-5.35;100.00
23677;BME280;31493;49.058;12.190;2022-12-18T12:01:13;97436.56;;;-5.03;100.00
23677;BME280;31493;49.058;12.190;2022-12-18T12:06:46;97446.34;;;-5.26;100.00
23677;BME280;31493;49.058;12.190;2022-12-18T12:09:20;97450.88;;;-5.04;100.00
23677;BME280;31493;49.058;12.190;2022-12-18T12:12:05;97447.75;;;-5.42;100.00
23677;BME280;31493;49.058;12.190;2022-12-18T12:14:46;97443.81;;;-5.28;100.00
23677;BME280;31493;49.058;12.190;2022-12-18T12:17:18;97430.06;;;-4.89;100.00
23677;BME280;31493;49.058;12.190;2022-12-18T12:19:53;97429.41;;;-4.77;100.00
23677;BME280;31493;49.058;12.190;2022-12-18T12:22:32;97416.31;;;-5.08;100.00
23677;BME280;31493;49.058;12.190;2022-12-18T12:25:11;97412.03;;;-4.53;100.00
23677;BME280;31493;49.058;12.190;2022-12-18T12:27:49;97421.59;;;-4.93;100.00
23677;BME280;31493;49.058;12.190;2022-12-18T12:30:21;97395.78;;;-4.70;100.00
23677;BME280;31493;49.058;12.190;2022-12-18T12:33:05;97402.03;;;-5.07;100.00
23677;BME280;31493;49.058;12.190;2022-12-18T12:35:46;97394.78;;;-4.83;100.00
23677;BME280;31493;49.058;12.190;2022-12-18T12:38:19;97396.09;;;-5.09;100.00
23677;BME280;31493;49.058;12.190;2022-12-18T12:40:51;97390.53;;;-4.86;100.00
23677;BME280;31493;49.058;12.190;2022-12-18T12:43:27;97387.53;;;-4.58;100.00
23677;BME280;31493;49.058;12.190;2022-12-18T12:45:58;97389.66;;;-4.88;100.00
23677;BME280;31493;49.058;12.190;2022-12-18T12:48:34;97397.41;;;-4.77;100.00
23677;BME280;31493;49.058;12.190;2022-12-18T12:51:08;97397.91;;;-4.99;100.00
23677;BME280;31493;49.058;12.190;2022-12-18T12:53:38;97399.53;;;-5.04;100.00
23677;BME280;31493;49.058;12.190;2022-12-18T12:56:07;97392.34;;;-4.77;100.00
23677;BME280;31493;49.058;12.190;2022-12-18T12:58:44;97392.09;;;-4.95;100.00